createdAt,value
2017-11-11T00:00:37.710Z,99017.52
2017-11-11T00:03:16.151Z,99005.23
2017-11-11T00:05:47.933Z,99006.41
2017-11-11T00:08:20.041Z,99017.13
2017-11-11T00:10:51.348Z,99008.39
2017-11-11T00:13:22.639Z,99011.57
2017-11-11T00:15:53.703Z,99022.59
2017-11-11T00:18:25.029Z,99019.53
2017-11-11T00:20:56.631Z,99015.86
2017-11-11T00:23:28.394Z,99015.83
2017-11-11T00:26:00.154Z,99025.25
2017-11-11T00:28:31.595Z,99025.80
2017-11-11T00:31:02.868Z,99026.20
2017-11-11T00:33:34.030Z,99031.23
2017-11-11T00:36:05.423Z,99018.67
2017-11-11T00:38:50.389Z,99029.00
2017-11-11T00:41:22.265Z,99029.80
2017-11-11T00:43:53.690Z,99038.41
2017-11-11T00:46:25.473Z,99042.92
2017-11-11T00:48:56.941Z,99035.63
2017-11-11T00:51:28.290Z,99027.03
2017-11-11T00:54:01.362Z,99036.55
2017-11-11T00:56:33.174Z,99044.89
2017-11-11T00:59:06.008Z,99042.51
2017-11-11T01:01:37.360Z,99041.05
2017-11-11T01:04:09.080Z,99035.73
2017-11-11T01:06:40.309Z,99036.10
2017-11-11T01:09:14.628Z,99039.42
2017-11-11T01:11:46.907Z,99035.45
2017-11-11T01:14:19.184Z,99030.94
2017-11-11T01:16:50.753Z,99032.24
2017-11-11T01:19:22.480Z,99025.75
2017-11-11T01:21:53.714Z,99031.31
2017-11-11T01:24:25.026Z,99032.51
2017-11-11T01:26:56.579Z,99023.09
2017-11-11T01:29:27.777Z,99023.62
2017-11-11T01:31:59.077Z,99027.63
2017-11-11T01:34:30.587Z,99025.77
2017-11-11T01:37:01.937Z,99031.59
2017-11-11T01:39:33.475Z,99031.88
2017-11-11T01:42:05.281Z,99020.50
2017-11-11T01:44:36.455Z,99012.27
2017-11-11T01:47:07.987Z,99021.55
2017-11-11T01:49:39.221Z,99017.59
2017-11-11T01:52:10.500Z,99016.80
2017-11-11T01:54:42.211Z,99018.26
2017-11-11T01:57:20.981Z,99012.82
2017-11-11T01:59:53.765Z,99016.42
2017-11-11T02:02:29.110Z,99004.61
2017-11-11T02:07:51.496Z,98994.83
2017-11-11T02:10:23.487Z,99001.97
2017-11-11T02:12:56.081Z,99004.75
2017-11-11T02:15:37.481Z,98998.79
2017-11-11T02:18:17.469Z,99000.20
2017-11-11T02:20:53.493Z,98995.04
2017-11-11T02:23:30.046Z,99001.78
2017-11-11T02:26:10.206Z,98991.58
2017-11-11T02:28:42.149Z,98991.95
2017-11-11T02:31:16.497Z,98983.17
2017-11-11T02:33:51.299Z,98989.01
2017-11-11T02:36:26.314Z,98973.62
2017-11-11T02:38:57.402Z,98977.07
2017-11-11T02:41:33.859Z,98982.11
2017-11-11T02:44:08.573Z,98981.98
2017-11-11T02:46:43.691Z,98970.33
2017-11-11T02:49:17.452Z,98971.23
2017-11-11T02:51:50.077Z,98970.75
2017-11-11T02:54:21.522Z,98964.76
2017-11-11T02:56:53.120Z,98966.61
2017-11-11T02:59:25.966Z,98966.51
2017-11-11T03:02:04.667Z,98949.98
2017-11-11T03:04:43.001Z,98964.38
2017-11-11T03:07:19.175Z,98960.14
2017-11-11T03:09:51.557Z,98958.57
2017-11-11T03:12:29.633Z,98957.22
2017-11-11T03:15:01.097Z,98963.34
2017-11-11T03:17:37.364Z,98963.61
2017-11-11T03:20:15.432Z,98944.94
2017-11-11T03:22:47.647Z,98958.59
2017-11-11T03:25:30.312Z,98945.20
2017-11-11T03:28:04.785Z,98952.89
2017-11-11T03:30:41.521Z,98950.34
2017-11-11T03:33:16.301Z,98949.83
2017-11-11T03:35:48.715Z,98953.80
2017-11-11T03:38:20.210Z,98951.52
2017-11-11T03:40:57.730Z,98950.47
2017-11-11T03:43:31.717Z,98944.20
2017-11-11T03:46:04.601Z,98939.42
2017-11-11T03:48:36.344Z,98946.83
2017-11-11T03:51:10.820Z,98948.16
2017-11-11T03:53:44.082Z,98956.09
2017-11-11T03:56:24.168Z,98949.59
2017-11-11T03:58:56.875Z,98954.89
2017-11-11T04:01:33.157Z,98958.47
2017-11-11T04:04:04.427Z,98957.67
2017-11-11T04:06:37.374Z,98963.64
2017-11-11T04:09:09.007Z,98965.64
2017-11-11T04:11:44.865Z,98937.05
2017-11-11T04:14:30.136Z,98945.23
2017-11-11T04:17:15.289Z,98956.37
2017-11-11T04:19:51.640Z,98946.98
2017-11-11T04:22:35.686Z,98940.75
2017-11-11T04:25:17.383Z,98927.65
2017-11-11T04:27:50.696Z,98932.69
2017-11-11T04:30:23.773Z,98929.94
2017-11-11T04:32:56.899Z,98938.27
2017-11-11T04:35:30.990Z,98947.41
2017-11-11T04:38:03.045Z,98932.19
2017-11-11T04:40:36.855Z,98937.09
2017-11-11T04:43:08.043Z,98916.03
2017-11-11T04:45:39.287Z,98928.63
2017-11-11T04:48:22.563Z,98924.52
2017-11-11T04:50:53.947Z,98926.64
2017-11-11T04:53:26.762Z,98928.08
2017-11-11T04:55:58.041Z,98923.01
2017-11-11T04:58:33.638Z,98910.41
2017-11-11T05:01:06.010Z,98924.14
2017-11-11T05:03:39.598Z,98919.47
2017-11-11T05:06:10.831Z,98926.87
2017-11-11T05:08:47.674Z,98923.02
2017-11-11T05:11:22.868Z,98933.47
2017-11-11T05:13:54.775Z,98932.14
2017-11-11T05:16:30.013Z,98941.16
2017-11-11T05:19:04.891Z,98929.36
2017-11-11T05:21:35.981Z,98941.17
2017-11-11T05:24:07.952Z,98921.44
2017-11-11T05:26:39.377Z,98924.88
2017-11-11T05:29:15.354Z,98918.70
2017-11-11T05:31:51.386Z,98907.84
2017-11-11T05:34:24.594Z,98916.05
2017-11-11T05:37:04.112Z,98908.53
2017-11-11T05:39:35.557Z,98904.55
2017-11-11T05:42:06.912Z,98903.36
2017-11-11T05:44:37.963Z,98902.59
2017-11-11T05:47:16.066Z,98890.39
2017-11-11T05:49:47.220Z,98885.38
2017-11-11T05:52:24.075Z,98876.92
2017-11-11T05:55:03.060Z,98881.96
2017-11-11T05:57:36.313Z,98885.17
2017-11-11T06:00:17.405Z,98877.48
2017-11-11T06:02:49.540Z,98867.94
2017-11-11T06:05:22.357Z,98863.56
2017-11-11T06:07:55.464Z,98869.47
2017-11-11T06:10:26.853Z,98867.19
2017-11-11T06:13:02.511Z,98867.28
2017-11-11T06:15:34.203Z,98845.53
2017-11-11T06:23:45.834Z,98868.73
2017-11-11T06:26:27.320Z,98847.71
2017-11-11T06:29:04.224Z,98861.56
2017-11-11T06:31:38.757Z,98861.69
2017-11-11T06:34:17.097Z,98856.66
2017-11-11T06:37:10.229Z,98860.90
2017-11-11T06:39:49.021Z,98859.34
2017-11-11T06:42:22.296Z,98865.95
2017-11-11T06:45:07.132Z,98868.38
2017-11-11T06:53:35.472Z,98859.16
2017-11-11T06:56:25.117Z,98854.95
2017-11-11T07:04:48.817Z,98845.00
2017-11-11T07:07:21.387Z,98842.22
2017-11-11T07:09:55.021Z,98833.53
2017-11-11T07:12:28.161Z,98830.22
2017-11-11T07:15:02.785Z,98842.13
2017-11-11T07:20:25.128Z,98837.09
2017-11-11T07:22:57.374Z,98845.83
2017-11-11T07:25:32.295Z,98847.27
2017-11-11T07:28:04.637Z,98833.59
2017-11-11T07:30:36.049Z,98829.19
2017-11-11T07:33:09.590Z,98837.59
2017-11-11T07:35:41.344Z,98837.02
2017-11-11T07:38:17.746Z,98821.27
2017-11-11T07:40:49.160Z,98829.01
2017-11-11T07:43:22.497Z,98826.04
2017-11-11T07:45:54.981Z,98821.34
2017-11-11T07:48:26.706Z,98819.59
2017-11-11T07:50:57.964Z,98811.52
2017-11-11T07:53:29.590Z,98813.09
2017-11-11T07:56:00.829Z,98825.30
2017-11-11T07:58:32.571Z,98810.42
2017-11-11T08:01:05.950Z,98815.30
2017-11-11T08:03:37.300Z,98805.53
2017-11-11T08:06:10.698Z,98811.84
2017-11-11T08:08:57.528Z,98812.10
2017-11-11T08:11:30.219Z,98815.29
2017-11-11T08:14:05.397Z,98807.38
2017-11-11T08:16:48.075Z,98808.12
2017-11-11T08:19:20.720Z,98798.20
2017-11-11T08:21:52.904Z,98804.20
2017-11-11T08:24:25.312Z,98793.73
2017-11-11T08:26:56.985Z,98790.40
2017-11-11T08:29:28.961Z,98783.70
2017-11-11T08:32:00.857Z,98796.73
2017-11-11T08:34:34.209Z,98788.66
2017-11-11T08:37:08.095Z,98789.05
2017-11-11T08:39:40.508Z,98764.38
2017-11-11T08:42:17.998Z,98775.64
2017-11-11T08:44:50.345Z,98770.56
2017-11-11T08:47:26.929Z,98765.38
2017-11-11T08:49:59.889Z,98752.08
2017-11-11T08:52:31.807Z,98746.38
2017-11-11T08:55:05.512Z,98746.64
2017-11-11T08:57:45.272Z,98705.55
2017-11-11T09:00:22.865Z,98726.01
2017-11-11T09:02:55.844Z,98749.23
2017-11-11T09:05:35.119Z,98741.17
2017-11-11T09:08:16.788Z,98739.92
2017-11-11T09:13:37.431Z,98732.78
2017-11-11T09:16:09.405Z,98734.77
2017-11-11T09:18:41.076Z,98715.00
2017-11-11T09:21:13.781Z,98708.62
2017-11-11T09:23:45.230Z,98716.20
2017-11-11T09:26:17.005Z,98722.85
2017-11-11T09:28:52.568Z,98709.77
2017-11-11T09:31:30.464Z,98728.42
2017-11-11T09:36:41.369Z,98744.77
2017-11-11T09:39:13.178Z,98727.89
2017-11-11T09:41:44.738Z,98717.61
2017-11-11T09:44:16.439Z,98723.58
2017-11-11T09:46:51.539Z,98714.06
2017-11-11T09:49:23.133Z,98721.45
2017-11-11T09:51:55.095Z,98712.76
2017-11-11T09:54:28.053Z,98717.66
2017-11-11T09:57:00.719Z,98693.64
2017-11-11T09:59:33.684Z,98692.03
2017-11-11T10:02:14.205Z,98696.16
2017-11-11T10:04:45.829Z,98695.94
2017-11-11T10:07:25.509Z,98684.34
2017-11-11T10:09:59.455Z,98683.64
2017-11-11T10:12:32.571Z,98672.48
2017-11-11T10:15:06.245Z,98681.50
2017-11-11T10:17:38.018Z,98689.91
2017-11-11T10:20:12.654Z,98678.55
2017-11-11T10:22:44.838Z,98681.52
2017-11-11T10:25:16.939Z,98676.88
2017-11-11T10:27:51.993Z,98666.33
2017-11-11T10:30:23.457Z,98667.97
2017-11-11T10:33:04.633Z,98673.06
2017-11-11T10:35:36.195Z,98667.44
2017-11-11T10:38:07.856Z,98673.92
2017-11-11T10:40:50.320Z,98663.14
2017-11-11T10:43:24.711Z,98661.41
2017-11-11T10:45:56.190Z,98647.59
2017-11-11T10:48:32.000Z,98653.21
2017-11-11T10:51:07.711Z,98649.81
2017-11-11T10:53:40.341Z,98648.42
2017-11-11T10:56:15.831Z,98630.06
2017-11-11T10:58:53.130Z,98634.51
2017-11-11T11:01:24.583Z,98627.35
2017-11-11T11:04:05.921Z,98620.87
2017-11-11T11:06:44.353Z,98625.66
2017-11-11T11:09:21.670Z,98626.98
2017-11-11T11:11:55.581Z,98616.41
2017-11-11T11:17:12.405Z,98624.33
2017-11-11T11:19:44.471Z,98614.97
2017-11-11T11:22:20.823Z,98616.44
2017-11-11T11:24:53.945Z,98598.98
2017-11-11T11:27:32.329Z,98591.41
2017-11-11T11:30:05.109Z,98595.85
2017-11-11T11:32:41.770Z,98591.55
2017-11-11T11:35:24.731Z,98578.18
2017-11-11T11:38:03.835Z,98570.97
2017-11-11T11:40:37.423Z,98561.55
2017-11-11T11:43:09.776Z,98576.63
2017-11-11T11:45:43.381Z,98565.91
2017-11-11T11:48:15.313Z,98573.80
2017-11-11T11:50:58.031Z,98564.44
2017-11-11T11:53:30.313Z,98557.80
2017-11-11T11:56:27.469Z,98549.73
2017-11-11T11:59:14.128Z,98535.57
2017-11-11T12:08:08.027Z,98518.05
2017-11-11T12:10:41.640Z,98508.73
2017-11-11T12:13:13.647Z,98510.14
2017-11-11T12:16:00.796Z,98510.40
2017-11-11T12:18:37.617Z,98513.99
2017-11-11T12:21:11.016Z,98507.55
2017-11-11T12:23:45.600Z,98517.05
2017-11-11T12:26:17.858Z,98507.48
2017-11-11T12:28:50.701Z,98503.31
2017-11-11T12:31:23.051Z,98492.59
2017-11-11T12:34:01.136Z,98499.02
2017-11-11T12:36:32.951Z,98488.62
2017-11-11T12:39:12.026Z,98475.13
2017-11-11T12:41:44.003Z,98475.86
2017-11-11T12:44:15.915Z,98477.77
2017-11-11T12:46:48.616Z,98472.42
2017-11-11T12:49:20.063Z,98475.96
2017-11-11T12:51:58.994Z,98476.05
2017-11-11T12:54:33.473Z,98465.48
2017-11-11T12:57:05.378Z,98472.91
2017-11-11T12:59:37.230Z,98467.72
2017-11-11T13:02:09.451Z,98464.72
2017-11-11T13:04:41.442Z,98470.34
2017-11-11T13:07:13.319Z,98457.73
2017-11-11T13:09:46.151Z,98469.09
2017-11-11T13:12:17.878Z,98465.05
2017-11-11T13:14:49.511Z,98471.97
2017-11-11T13:17:26.466Z,98473.02
2017-11-11T13:19:58.285Z,98467.70
2017-11-11T13:22:29.677Z,98470.62
2017-11-11T13:25:00.832Z,98472.62
2017-11-11T13:27:32.413Z,98468.75
2017-11-11T13:30:04.127Z,98472.94
2017-11-11T13:32:37.180Z,98478.76
2017-11-11T13:35:09.811Z,98473.13
2017-11-11T13:37:41.215Z,98465.03
2017-11-11T13:40:12.956Z,98455.48
2017-11-11T13:42:44.070Z,98459.72
2017-11-11T13:48:18.149Z,98452.09
2017-11-11T13:50:50.253Z,98443.59
2017-11-11T13:53:21.992Z,98443.47
2017-11-11T13:55:53.729Z,98445.39
2017-11-11T13:58:25.540Z,98441.04
2017-11-11T14:00:58.233Z,98434.06
2017-11-11T14:03:30.374Z,98440.87
2017-11-11T14:06:03.185Z,98430.30
2017-11-11T14:08:36.162Z,98435.21
2017-11-11T14:11:09.549Z,98432.19
2017-11-11T14:13:41.807Z,98425.72
2017-11-11T14:16:16.382Z,98426.95
2017-11-11T14:18:48.295Z,98427.75
2017-11-11T14:21:19.714Z,98411.84
2017-11-11T14:23:52.634Z,98419.33
2017-11-11T14:26:25.066Z,98417.31
2017-11-11T14:28:56.747Z,98413.56
2017-11-11T14:31:37.302Z,98392.50
2017-11-11T14:34:16.643Z,98413.02
2017-11-11T14:36:57.029Z,98408.61
2017-11-11T14:39:28.921Z,98405.59
2017-11-11T14:42:02.522Z,98406.30
2017-11-11T14:44:35.244Z,98399.94
2017-11-11T14:47:09.102Z,98392.94
2017-11-11T14:49:45.418Z,98395.84
2017-11-11T14:52:18.753Z,98394.91
2017-11-11T14:54:52.014Z,98385.20
2017-11-11T14:57:24.648Z,98379.20
2017-11-11T14:59:58.921Z,98376.13
2017-11-11T15:05:16.793Z,98370.39
2017-11-11T15:07:50.602Z,98339.10
2017-11-11T15:10:22.194Z,98367.52
2017-11-11T15:12:54.983Z,98355.88
2017-11-11T15:15:26.157Z,98356.11
2017-11-11T15:17:58.105Z,98366.59
2017-11-11T15:20:30.273Z,98350.23
2017-11-11T15:23:10.018Z,98364.50
2017-11-11T15:28:25.074Z,98352.78
2017-11-11T15:31:10.000Z,98339.73
2017-11-11T15:33:50.923Z,98347.80
2017-11-11T15:36:23.480Z,98340.02
2017-11-11T15:38:57.144Z,98347.23
2017-11-11T15:41:29.476Z,98335.15
2017-11-11T15:44:03.488Z,98337.78
2017-11-11T15:46:35.199Z,98333.29
2017-11-11T15:49:07.720Z,98339.84
2017-11-11T15:51:39.744Z,98343.44
2017-11-11T15:54:11.988Z,98346.12
2017-11-11T15:56:45.141Z,98339.00
2017-11-11T15:59:18.306Z,98334.91
2017-11-11T16:01:58.310Z,98331.35
2017-11-11T16:04:30.428Z,98339.36
2017-11-11T16:07:04.951Z,98338.31
2017-11-11T16:09:41.351Z,98342.83
2017-11-11T16:12:13.524Z,98341.64
2017-11-11T16:14:50.557Z,98339.92
2017-11-11T16:17:25.852Z,98334.02
2017-11-11T16:20:00.117Z,98340.25
2017-11-11T16:22:36.996Z,98347.45
2017-11-11T16:25:10.549Z,98350.48
2017-11-11T16:27:44.920Z,98342.52
2017-11-11T16:30:17.189Z,98345.50
2017-11-11T16:32:49.386Z,98341.47
2017-11-11T16:35:24.148Z,98341.86
2017-11-11T16:37:55.250Z,98340.25
2017-11-11T16:40:30.382Z,98334.75
2017-11-11T16:43:01.913Z,98336.59
2017-11-11T16:45:40.551Z,98348.11
2017-11-11T16:48:14.322Z,98335.63
2017-11-11T16:50:46.859Z,98331.12
2017-11-11T16:53:21.351Z,98324.73
2017-11-11T16:55:53.110Z,98328.71
2017-11-11T16:58:24.801Z,98331.70
2017-11-11T17:00:58.188Z,98340.23
2017-11-11T17:03:29.684Z,98336.67
2017-11-11T17:06:00.624Z,98338.02
2017-11-11T17:08:33.244Z,98332.32
2017-11-11T17:11:05.497Z,98338.33
2017-11-11T17:13:42.298Z,98327.77
2017-11-11T17:16:14.528Z,98343.80
2017-11-11T17:21:51.972Z,98314.55
2017-11-11T17:24:23.846Z,98331.02
2017-11-11T17:27:05.995Z,98324.85
2017-11-11T17:29:40.789Z,98331.20
2017-11-11T17:32:17.367Z,98323.66
2017-11-11T17:34:48.957Z,98313.04
2017-11-11T17:37:22.668Z,98316.05
2017-11-11T17:39:54.902Z,98315.47
2017-11-11T17:42:26.576Z,98312.16
2017-11-11T17:44:58.212Z,98329.88
2017-11-11T17:47:29.774Z,98343.72
2017-11-11T17:50:01.432Z,98345.95
2017-11-11T17:52:33.044Z,98341.95
2017-11-11T17:55:05.700Z,98344.60
2017-11-11T17:57:37.720Z,98348.77
2017-11-11T18:00:15.321Z,98349.50
2017-11-11T18:07:20.276Z,98329.89
2017-11-11T18:14:23.591Z,98328.59
2017-11-11T18:16:55.313Z,98319.84
2017-11-11T18:24:10.308Z,98328.08
2017-11-11T18:26:42.081Z,98327.69
2017-11-11T18:38:19.343Z,98330.53
2017-11-11T18:41:01.248Z,98334.77
2017-11-11T18:43:33.358Z,98339.73
2017-11-11T18:46:04.784Z,98340.80
2017-11-11T18:48:36.626Z,98336.30
2017-11-11T18:55:40.706Z,98335.59
2017-11-11T18:58:17.231Z,98330.30
2017-11-11T19:00:49.372Z,98339.63
2017-11-11T19:08:04.398Z,98341.39
2017-11-11T19:10:37.274Z,98341.77
2017-11-11T19:13:10.304Z,98343.69
2017-11-11T19:25:00.485Z,98347.87
2017-11-11T19:32:04.223Z,98366.00
2017-11-11T19:39:08.315Z,98361.25
2017-11-11T19:46:11.811Z,98392.42
2017-11-11T19:48:43.429Z,98396.54
2017-11-11T19:55:48.633Z,98403.96
2017-11-11T20:03:03.484Z,98428.44
2017-11-11T20:05:36.234Z,98441.80
2017-11-11T20:12:41.481Z,98428.63
2017-11-11T20:15:25.848Z,98432.68
2017-11-11T20:27:04.269Z,98434.45
2017-11-11T20:34:12.678Z,98452.81
2017-11-11T20:36:46.144Z,98449.49
2017-11-11T20:39:20.863Z,98451.80
2017-11-11T20:41:53.104Z,98456.13
2017-11-11T20:44:26.400Z,98443.53
2017-11-11T20:46:59.890Z,98456.76
2017-11-11T20:58:47.027Z,98475.17
2017-11-11T21:14:57.030Z,98478.60
2017-11-11T21:18:37.780Z,98501.53
2017-11-11T21:21:17.081Z,98505.97
2017-11-11T21:23:52.757Z,98506.36
2017-11-11T21:26:27.574Z,98509.02
2017-11-11T21:29:00.942Z,98516.58
2017-11-11T21:31:36.663Z,98508.78
2017-11-11T21:34:09.930Z,98520.80
2017-11-11T21:36:42.419Z,98521.98
2017-11-11T21:39:14.985Z,98518.98
2017-11-11T21:41:48.192Z,98521.75
2017-11-11T21:44:23.078Z,98527.27
2017-11-11T21:46:55.103Z,98524.62
2017-11-11T21:54:00.874Z,98534.09
2017-11-11T22:28:40.203Z,98547.77
2017-11-11T22:58:59.181Z,98580.94
2017-11-11T23:01:31.614Z,98575.50
2017-11-11T23:04:03.561Z,98576.91
